Lakewood test Advisories (N12)
Lakewood, NJ
Field Elevation: 43
Lat: 40°04.01N  Long: 74°10.40W
CTAF/Unicom Freq: 122.8000
   
     For Weather-by-Phone, call 732-363-6471
Weather Advisories
2022-01-29   13:33 Z
Altimeter 29.68" Hg
Wind 340° @ 12 KT
Gusts 23 KT
Visibility 1/4 SM
Ceiling VV007
Temperature -6° C (21° F)
Dewpoint -7° C (19° F)
Relative Humidity 97%
Density Altitude --
Condensation Altitude --
Wind Chill: -13° C (9° F)
Wind and Runways
Indicated Runway = 06
Headwind = 2 kt
Crosswind = 12 kt
History
 
 
 
More Info
All DigiWx sites map
NOAA Forecast
 
Airport IQ 5010
(4N1) Greenwood Lake, NJ
(N40) Sky Manor, NJ
 
about DigiWx
 
FAA Disclaimer: The data displayed is for advisory purposes only and is not to be used for flight planning or operations. For official data, please call 732-363-6471 to hear the current automated AWOS voice message.
  METAR N12 291333Z AUTO 34012G23KT 1/4 SM VV007 M06/M07 A2968